Time;durP1;ratioP1;P1;durP2;ratioP2;P2;SDS_P1;SDS_P2;PMS_P1;PMS_P2;Temp;Humidity;BMP_temperature;BMP_pressure;BME280_temperature;BME280_humidity;BME280_pressure;Samples;Min_cycle;Max_cycle;Signal;HPM_P1;HPM_P2
2022/03/05 00:00:14;;;;;;;24.53;15.93;;;1.60;99.90;;;;;;5013973;28;20192;-65
2022/03/05 00:02:39;;;;;;;23.33;15.13;;;1.60;99.90;;;;;;5012487;28;20263;-65
2022/03/05 00:05:05;;;;;;;28.73;14.43;;;1.60;99.90;;;;;;5012142;28;20288;-65
2022/03/05 00:07:32;;;;;;;23.20;14.43;;;1.60;99.90;;;;;;5014207;28;20172;-65
2022/03/05 00:09:58;;;;;;;26.20;14.20;;;1.60;99.90;;;;;;5013810;28;20204;-65
2022/03/05 00:12:23;;;;;;;24.93;15.47;;;1.50;99.90;;;;;;5014505;28;20230;-65
2022/03/05 00:14:49;;;;;;;25.13;14.97;;;1.50;99.90;;;;;;5013558;28;20658;-66
2022/03/05 00:17:14;;;;;;;25.67;15.43;;;1.50;99.90;;;;;;5013688;28;20291;-65
2022/03/05 00:19:40;;;;;;;27.40;17.33;;;1.50;99.90;;;;;;5013647;28;20733;-65
2022/03/05 00:22:06;;;;;;;26.70;15.00;;;1.40;99.90;;;;;;5013366;28;20184;-65
2022/03/05 00:24:32;;;;;;;25.63;15.73;;;1.40;99.90;;;;;;5013639;28;20172;-65
2022/03/05 00:26:57;;;;;;;25.10;13.83;;;1.40;99.90;;;;;;5013463;28;20207;-65
2022/03/05 00:29:24;;;;;;;32.30;15.77;;;1.30;99.90;;;;;;5013219;28;20199;-64
2022/03/05 00:31:50;;;;;;;26.93;15.90;;;1.30;99.90;;;;;;5013123;28;20184;-66
2022/03/05 00:34:16;;;;;;;22.87;15.10;;;1.30;99.90;;;;;;5013445;28;20683;-65
2022/03/05 00:36:41;;;;;;;28.90;18.03;;;1.30;99.90;;;;;;5013554;28;20208;-64
2022/03/05 00:39:07;;;;;;;28.77;18.27;;;1.30;99.90;;;;;;5012829;28;20814;-65
2022/03/05 00:41:33;;;;;;;30.90;16.57;;;1.20;99.90;;;;;;5013596;28;20168;-65
2022/03/05 00:43:59;;;;;;;26.67;16.40;;;1.20;99.90;;;;;;5013230;28;20602;-64
2022/03/05 00:46:25;;;;;;;27.63;17.30;;;1.20;99.90;;;;;;5013289;28;20539;-65
2022/03/05 00:48:52;;;;;;;25.80;16.70;;;1.20;99.90;;;;;;5013128;28;20203;-65
2022/03/05 00:51:18;;;;;;;29.03;16.63;;;1.20;99.90;;;;;;5013443;28;20704;-64
2022/03/05 00:53:44;;;;;;;31.50;17.13;;;1.20;99.90;;;;;;5012847;28;20203;-64
2022/03/05 00:56:09;;;;;;;28.07;16.83;;;1.10;99.90;;;;;;5011513;28;20262;-65
2022/03/05 00:58:35;;;;;;;28.93;16.30;;;1.10;99.90;;;;;;5013097;28;20200;-64
2022/03/05 01:01:00;;;;;;;33.20;18.63;;;1.00;99.90;;;;;;5012490;28;20192;-64
2022/03/05 01:03:26;;;;;;;30.20;17.67;;;1.00;99.90;;;;;;5012690;28;20669;-65
2022/03/05 01:05:53;;;;;;;32.10;16.90;;;0.90;99.90;;;;;;5012536;28;20176;-65
2022/03/05 01:08:19;;;;;;;30.27;17.80;;;0.90;99.90;;;;;;5012661;28;20176;-65
2022/03/05 01:10:45;;;;;;;25.97;16.77;;;0.90;99.90;;;;;;5012354;28;20204;-65
2022/03/05 01:13:11;;;;;;;28.53;19.53;;;0.90;99.90;;;;;;5012024;28;20275;-65
2022/03/05 01:15:36;;;;;;;36.33;18.60;;;0.80;99.90;;;;;;5012340;28;20183;-64
2022/03/05 01:18:02;;;;;;;35.13;18.43;;;0.80;99.90;;;;;;5011976;28;20211;-64
2022/03/05 01:20:28;;;;;;;35.60;18.37;;;0.70;99.90;;;;;;5012072;28;20184;-64
2022/03/05 01:22:53;;;;;;;33.17;16.40;;;0.70;99.90;;;;;;5011708;28;20183;-65
2022/03/05 01:25:19;;;;;;;33.83;17.30;;;0.60;99.90;;;;;;5012562;28;20172;-65
2022/03/05 01:27:45;;;;;;;31.63;18.30;;;0.60;99.90;;;;;;5011233;28;20664;-65
2022/03/05 01:30:11;;;;;;;31.07;16.47;;;0.60;99.90;;;;;;5011392;28;20204;-64
2022/03/05 01:32:37;;;;;;;34.93;18.67;;;0.60;99.90;;;;;;5012267;28;20311;-65
2022/03/05 01:35:04;;;;;;;30.33;17.33;;;0.60;99.90;;;;;;5012538;28;20649;-64
2022/03/05 01:37:30;;;;;;;37.33;18.27;;;0.50;99.90;;;;;;5012854;28;20207;-65
2022/03/05 01:39:56;;;;;;;33.47;19.30;;;0.50;99.90;;;;;;5012047;28;20677;-64
2022/03/05 01:42:22;;;;;;;36.30;17.83;;;0.50;99.90;;;;;;5012256;28;20172;-66
2022/03/05 01:44:48;;;;;;;35.60;19.07;;;0.40;99.90;;;;;;5012412;28;20199;-65
2022/03/05 01:47:14;;;;;;;32.37;19.20;;;0.40;99.90;;;;;;5012109;28;20273;-65
2022/03/05 01:49:39;;;;;;;31.97;19.63;;;0.40;99.90;;;;;;5012229;28;20219;-65
2022/03/05 01:52:05;;;;;;;35.43;19.80;;;0.40;99.90;;;;;;5012171;28;20191;-65
2022/03/05 01:54:32;;;;;;;35.60;20.03;;;0.40;99.90;;;;;;5012445;28;20178;-64
2022/03/05 01:56:59;;;;;;;34.20;19.00;;;0.40;99.90;;;;;;5011876;28;20224;-64
2022/03/05 01:59:25;;;;;;;31.53;17.13;;;0.40;99.90;;;;;;5012187;28;20223;-64
2022/03/05 02:01:51;;;;;;;33.70;18.27;;;0.50;99.90;;;;;;5012092;28;20599;-65
2022/03/05 02:04:17;;;;;;;37.73;19.63;;;0.50;99.90;;;;;;5012015;28;20271;-65
2022/03/05 02:06:43;;;;;;;32.80;19.20;;;0.50;99.90;;;;;;5012429;28;20215;-65
2022/03/05 02:09:09;;;;;;;32.67;17.70;;;0.50;99.90;;;;;;5010952;28;20180;-65
2022/03/05 02:11:35;;;;;;;33.47;19.43;;;0.50;99.90;;;;;;5010924;28;20541;-66
2022/03/05 02:14:00;;;;;;;39.77;20.87;;;0.40;99.90;;;;;;5010498;28;20184;-65
2022/03/05 02:16:26;;;;;;;32.50;19.03;;;0.40;99.90;;;;;;5012324;28;20176;-64
2022/03/05 02:18:56;;;;;;;38.37;19.60;;;0.40;99.90;;;;;;5011870;28;20180;-65
2022/03/05 02:21:23;;;;;;;32.17;18.63;;;0.40;99.90;;;;;;5014400;28;20279;-64
2022/03/05 02:23:50;;;;;;;37.53;18.93;;;0.30;99.90;;;;;;5014158;28;20173;-65
2022/03/05 02:26:15;;;;;;;37.07;18.87;;;0.30;99.90;;;;;;5015742;28;20172;-64
2022/03/05 02:28:41;;;;;;;37.83;20.53;;;0.20;99.90;;;;;;5015543;28;20639;-65
2022/03/05 02:31:07;;;;;;;36.30;19.73;;;0.20;99.90;;;;;;5015478;28;20235;-65
2022/03/05 02:33:33;;;;;;;30.83;19.33;;;0.20;99.90;;;;;;5015921;28;20670;-65
2022/03/05 02:35:59;;;;;;;37.83;19.90;;;0.10;99.90;;;;;;5015752;28;20319;-65
2022/03/05 02:38:25;;;;;;;38.50;19.30;;;0.10;99.90;;;;;;5015074;28;20746;-64
2022/03/05 02:40:52;;;;;;;39.60;19.50;;;0.00;99.90;;;;;;5015529;28;20200;-65
2022/03/05 02:43:19;;;;;;;31.17;18.77;;;0.00;99.90;;;;;;5014941;28;20183;-65
2022/03/05 02:45:45;;;;;;;35.77;18.77;;;-0.10;99.90;;;;;;5015249;28;20175;-65
2022/03/05 02:48:13;;;;;;;40.33;19.77;;;-0.10;99.90;;;;;;5015083;28;20184;-65
2022/03/05 02:50:39;;;;;;;33.27;19.90;;;-0.10;99.90;;;;;;5015259;28;20295;-65
2022/03/05 02:53:05;;;;;;;39.50;20.20;;;-0.10;99.90;;;;;;5014623;28;20197;-65
2022/03/05 02:55:31;;;;;;;38.40;18.83;;;-0.10;99.90;;;;;;5015655;28;20175;-65
2022/03/05 02:57:57;;;;;;;34.60;19.20;;;-0.20;99.90;;;;;;5015098;28;20291;-64
2022/03/05 03:00:23;;;;;;;40.80;20.10;;;-0.20;99.90;;;;;;5015281;28;20712;-64
2022/03/05 03:02:49;;;;;;;36.53;18.43;;;-0.20;99.90;;;;;;5014497;28;20199;-65
2022/03/05 03:05:16;;;;;;;32.87;17.97;;;-0.30;99.90;;;;;;5015190;28;20175;-64
2022/03/05 03:07:43;;;;;;;36.77;19.30;;;-0.30;99.90;;;;;;5013474;28;20238;-64
2022/03/05 03:10:10;;;;;;;36.63;19.87;;;-0.30;99.90;;;;;;5014572;28;20196;-65
2022/03/05 03:12:36;;;;;;;45.90;20.47;;;-0.30;99.90;;;;;;5014234;28;20255;-65
2022/03/05 03:15:03;;;;;;;42.77;20.63;;;-0.30;99.90;;;;;;5014522;28;20219;-64
2022/03/05 03:17:29;;;;;;;34.50;19.33;;;-0.30;99.90;;;;;;5014890;28;20211;-65
2022/03/05 03:19:55;;;;;;;43.37;20.63;;;-0.30;99.90;;;;;;5014835;28;20192;-65
2022/03/05 03:22:21;;;;;;;36.00;19.63;;;-0.30;99.90;;;;;;5014388;28;20176;-65
2022/03/05 03:24:46;;;;;;;45.03;20.07;;;-0.30;99.90;;;;;;5014821;28;20243;-65
2022/03/05 03:27:12;;;;;;;39.97;19.60;;;-0.30;99.90;;;;;;5014988;28;20558;-64
2022/03/05 03:29:38;;;;;;;49.20;21.13;;;-0.30;99.90;;;;;;5014750;28;20188;-65
2022/03/05 03:32:04;;;;;;;45.27;19.80;;;-0.30;99.90;;;;;;5014855;28;20275;-66
2022/03/05 03:34:30;;;;;;;40.53;20.70;;;-0.30;99.90;;;;;;5015489;28;20255;-65
2022/03/05 03:36:55;;;;;;;39.20;21.70;;;-0.30;99.90;;;;;;5014460;28;20287;-66
2022/03/05 03:39:21;;;;;;;47.40;19.43;;;-0.30;99.90;;;;;;5014893;28;20268;-65
2022/03/05 03:41:46;;;;;;;41.33;20.87;;;-0.30;99.90;;;;;;5014683;28;20523;-65
2022/03/05 03:44:12;;;;;;;35.40;19.07;;;-0.20;99.90;;;;;;5014780;28;20230;-65
2022/03/05 03:46:38;;;;;;;44.03;20.83;;;-0.20;99.90;;;;;;5014352;28;20184;-65
2022/03/05 03:49:04;;;;;;;36.43;18.63;;;-0.30;99.90;;;;;;5012827;28;20184;-65
2022/03/05 03:51:30;;;;;;;49.60;20.53;;;-0.30;99.90;;;;;;5052576;23;20357;-67
2022/03/05 03:53:55;;;;;;;39.27;19.53;;;-0.30;99.90;;;;;;5033395;28;20698;-67
2022/03/05 03:56:21;;;;;;;38.70;19.30;;;-0.30;99.90;;;;;;5032226;28;20183;-67
2022/03/05 03:58:47;;;;;;;36.47;18.10;;;-0.30;99.90;;;;;;5033499;28;20190;-67
2022/03/05 04:01:13;;;;;;;40.07;20.50;;;-0.30;99.90;;;;;;5023681;28;20196;-67
2022/03/05 04:03:38;;;;;;;38.57;19.50;;;-0.40;99.90;;;;;;5033252;28;20175;-67
2022/03/05 04:06:04;;;;;;;46.67;20.10;;;-0.40;99.90;;;;;;5022189;28;20605;-67
2022/03/05 04:08:41;;;;;;;45.23;21.07;;;-0.30;99.90;;;;;;5012330;28;20192;-67
2022/03/05 04:11:09;;;;;;;39.07;20.00;;;-0.30;99.90;;;;;;5027846;28;20282;-67
2022/03/05 04:13:34;;;;;;;34.63;20.73;;;-0.30;99.90;;;;;;5031654;28;20183;-67
2022/03/05 04:16:00;;;;;;;37.17;20.90;;;-0.40;99.90;;;;;;5018313;28;20227;-67
2022/03/05 04:18:26;;;;;;;38.97;19.10;;;-0.40;99.90;;;;;;5019747;28;20200;-67
2022/03/05 04:20:51;;;;;;;38.37;21.07;;;-0.40;99.90;;;;;;5031600;28;20590;-67
2022/03/05 04:23:17;;;;;;;36.60;20.17;;;-0.40;99.90;;;;;;5026635;28;20258;-65
2022/03/05 04:25:42;;;;;;;35.17;19.00;;;-0.40;99.90;;;;;;5013241;28;20528;-67
2022/03/05 04:28:08;;;;;;;47.00;19.43;;;-0.40;99.90;;;;;;5015824;28;20207;-67
2022/03/05 04:30:35;;;;;;;35.33;20.40;;;-0.40;99.90;;;;;;5032955;28;20592;-67
2022/03/05 04:33:00;;;;;;;35.23;19.80;;;-0.40;99.90;;;;;;5027272;28;20273;-67
2022/03/05 04:35:26;;;;;;;34.80;19.53;;;-0.30;99.90;;;;;;5032906;28;20626;-67
2022/03/05 04:37:52;;;;;;;37.20;20.27;;;-0.30;99.90;;;;;;5028309;28;20203;-67
2022/03/05 04:40:18;;;;;;;43.97;20.47;;;-0.30;99.90;;;;;;5012999;28;20216;-67
2022/03/05 04:42:43;;;;;;;45.07;20.53;;;-0.30;99.90;;;;;;5011522;28;20176;-67
2022/03/05 04:45:09;;;;;;;41.13;21.00;;;-0.30;99.90;;;;;;5032637;28;20203;-67
2022/03/05 04:47:36;;;;;;;36.70;19.83;;;-0.30;99.90;;;;;;5032806;28;20545;-67
2022/03/05 04:50:04;;;;;;;42.67;18.83;;;-0.20;99.90;;;;;;5031961;28;20215;-67
2022/03/05 04:52:29;;;;;;;43.63;19.70;;;-0.20;99.90;;;;;;5038032;28;20177;-66
2022/03/05 04:54:55;;;;;;;38.40;19.63;;;-0.20;99.90;;;;;;5020029;28;20209;-67
2022/03/05 04:57:20;;;;;;;34.63;18.53;;;-0.20;99.90;;;;;;5018945;28;20204;-67
2022/03/05 04:59:46;;;;;;;36.23;19.93;;;-0.20;99.90;;;;;;5032087;28;20691;-67
2022/03/05 05:02:12;;;;;;;36.00;18.10;;;-0.20;99.90;;;;;;5024296;28;20184;-67
2022/03/05 05:04:37;;;;;;;35.97;19.00;;;-0.20;99.90;;;;;;5013021;28;20322;-67
2022/03/05 05:07:03;;;;;;;43.97;19.97;;;-0.20;99.90;;;;;;5024222;28;20317;-67
2022/03/05 05:09:30;;;;;;;40.27;19.20;;;-0.20;99.90;;;;;;5035559;28;20176;-67
2022/03/05 05:11:56;;;;;;;38.03;19.17;;;-0.20;99.90;;;;;;5026928;28;20176;-68
2022/03/05 05:14:21;;;;;;;39.03;19.53;;;-0.30;99.90;;;;;;5014497;28;20176;-67
2022/03/05 05:16:47;;;;;;;37.63;18.57;;;-0.30;99.90;;;;;;5019242;28;20562;-67
2022/03/05 05:19:25;;;;;;;35.03;17.67;;;-0.30;99.90;;;;;;5032057;28;20633;-67
2022/03/05 05:21:51;;;;;;;33.77;18.93;;;-0.30;99.90;;;;;;5024944;28;20178;-67
2022/03/05 05:24:17;;;;;;;36.93;17.17;;;-0.30;99.90;;;;;;5012134;28;20164;-67
2022/03/05 05:26:44;;;;;;;37.23;19.40;;;-0.30;99.90;;;;;;5017192;28;20246;-67
2022/03/05 05:29:09;;;;;;;32.57;17.60;;;-0.30;99.90;;;;;;5029411;28;20246;-67
2022/03/05 05:31:36;;;;;;;32.27;19.63;;;-0.30;99.90;;;;;;5021545;28;20207;-67
2022/03/05 05:34:02;;;;;;;35.20;18.97;;;-0.30;99.90;;;;;;5030804;28;20259;-67
2022/03/05 05:36:27;;;;;;;30.93;18.63;;;-0.30;99.90;;;;;;5010847;28;20179;-67
2022/03/05 05:38:53;;;;;;;42.50;18.67;;;-0.30;99.90;;;;;;5012162;28;20176;-67
2022/03/05 05:41:19;;;;;;;35.27;18.37;;;-0.30;99.90;;;;;;5028310;28;20210;-67
2022/03/05 05:43:45;;;;;;;36.97;19.50;;;-0.30;99.90;;;;;;5031540;28;20167;-67
2022/03/05 05:46:11;;;;;;;34.40;19.90;;;-0.30;99.90;;;;;;5014615;28;20219;-67
2022/03/05 05:48:37;;;;;;;36.47;19.17;;;-0.30;99.90;;;;;;5010681;28;20645;-67
2022/03/05 05:51:03;;;;;;;36.03;19.00;;;-0.30;99.90;;;;;;5026622;28;20218;-65
2022/03/05 05:53:29;;;;;;;36.70;18.17;;;-0.30;99.90;;;;;;5031962;28;20179;-65
2022/03/05 05:55:55;;;;;;;35.40;18.60;;;-0.30;99.90;;;;;;5022087;28;20194;-65
2022/03/05 05:58:21;;;;;;;38.27;18.50;;;-0.40;99.90;;;;;;5025982;28;20203;-65
2022/03/05 06:00:48;;;;;;;41.07;19.90;;;-0.30;99.90;;;;;;5035279;28;20237;-65
2022/03/05 06:03:13;;;;;;;44.47;21.73;;;-0.30;99.90;;;;;;5025119;28;20553;-65
2022/03/05 06:05:39;;;;;;;38.63;19.70;;;-0.30;99.90;;;;;;5015777;28;20168;-65
2022/03/05 06:08:05;;;;;;;38.97;20.27;;;-0.30;99.90;;;;;;5022334;28;20184;-65
2022/03/05 06:10:30;;;;;;;44.63;21.03;;;-0.40;99.90;;;;;;5033230;28;20195;-65
2022/03/05 06:12:56;;;;;;;36.73;18.90;;;-0.40;99.90;;;;;;5029772;28;20187;-65
2022/03/05 06:15:22;;;;;;;39.60;20.53;;;-0.30;99.90;;;;;;5015629;28;20173;-65
2022/03/05 06:17:48;;;;;;;36.37;18.37;;;-0.30;99.90;;;;;;5026418;28;20247;-65
2022/03/05 06:20:13;;;;;;;34.97;18.73;;;-0.40;99.90;;;;;;5033462;28;20282;-65
2022/03/05 06:22:39;;;;;;;33.97;19.20;;;-0.40;99.90;;;;;;5024810;28;20211;-65
2022/03/05 06:25:06;;;;;;;37.30;19.37;;;-0.40;99.90;;;;;;5014288;28;20176;-65
2022/03/05 06:27:32;;;;;;;32.27;19.13;;;-0.40;99.90;;;;;;5034064;28;20574;-65
2022/03/05 06:29:57;;;;;;;39.03;20.70;;;-0.40;99.90;;;;;;5033844;28;20207;-65
2022/03/05 06:32:23;;;;;;;39.60;19.73;;;-0.40;99.90;;;;;;5016052;28;20334;-65
2022/03/05 06:34:49;;;;;;;34.83;18.37;;;-0.40;99.90;;;;;;5013857;28;20195;-65
2022/03/05 06:37:14;;;;;;;33.43;18.20;;;-0.30;99.90;;;;;;5029395;28;20724;-65
2022/03/05 06:39:40;;;;;;;34.63;18.13;;;-0.30;99.90;;;;;;5033464;28;20265;-67
2022/03/05 06:42:07;;;;;;;34.03;17.80;;;-0.30;99.90;;;;;;5020072;28;20184;-65
2022/03/05 06:44:35;;;;;;;35.23;18.70;;;-0.20;99.90;;;;;;5012781;28;20689;-65
2022/03/05 06:47:01;;;;;;;32.07;18.37;;;-0.20;99.90;;;;;;5024898;28;20172;-65
2022/03/05 06:49:27;;;;;;;35.93;18.63;;;-0.10;99.90;;;;;;5034434;28;20175;-65
2022/03/05 06:51:53;;;;;;;38.03;19.90;;;-0.10;99.90;;;;;;5023306;28;20188;-65
2022/03/05 06:54:19;;;;;;;34.67;18.03;;;0.00;99.90;;;;;;5020488;28;20274;-66
2022/03/05 06:56:44;;;;;;;40.17;19.40;;;0.00;99.90;;;;;;5033244;28;20226;-67
2022/03/05 06:59:10;;;;;;;32.90;20.00;;;0.10;99.90;;;;;;5028737;28;20535;-66
2022/03/05 07:01:35;;;;;;;35.47;18.47;;;0.10;99.90;;;;;;5017539;28;20199;-66
2022/03/05 07:04:01;;;;;;;34.40;18.10;;;0.20;99.90;;;;;;5007654;28;20267;-65
2022/03/05 07:06:27;;;;;;;29.77;18.53;;;0.30;99.90;;;;;;5031826;28;20178;-67
2022/03/05 07:08:53;;;;;;;30.67;18.30;;;0.30;99.90;;;;;;5031149;28;20206;-65
2022/03/05 07:11:18;;;;;;;34.60;19.50;;;0.40;99.90;;;;;;5013309;28;20180;-65
2022/03/05 07:13:44;;;;;;;34.30;18.10;;;0.40;99.90;;;;;;5011981;28;20169;-66
2022/03/05 07:16:09;;;;;;;33.87;18.73;;;0.50;99.90;;;;;;5032961;28;20191;-65
2022/03/05 07:18:35;;;;;;;33.57;20.03;;;0.70;99.90;;;;;;5034303;28;20282;-66
2022/03/05 07:21:01;;;;;;;30.97;19.43;;;0.90;99.90;;;;;;5023913;28;20315;-67
2022/03/05 07:23:27;;;;;;;33.50;19.00;;;1.30;99.90;;;;;;5032503;28;20218;-67
2022/03/05 07:25:53;;;;;;;35.23;18.10;;;1.60;99.90;;;;;;5017901;28;20176;-66
2022/03/05 07:28:19;;;;;;;30.70;17.90;;;1.90;99.90;;;;;;5014150;28;20637;-67
2022/03/05 07:30:44;;;;;;;36.57;18.83;;;2.20;99.90;;;;;;5027369;28;20566;-67
2022/03/05 07:33:10;;;;;;;39.03;18.73;;;2.50;99.90;;;;;;5032986;28;20562;-66
2022/03/05 07:35:36;;;;;;;31.67;18.70;;;2.70;99.90;;;;;;5021853;28;20198;-66
2022/03/05 07:38:02;;;;;;;30.23;17.77;;;2.90;99.90;;;;;;5013818;28;20208;-66
2022/03/05 07:40:27;;;;;;;29.10;18.27;;;3.10;99.90;;;;;;5023685;28;20196;-66
2022/03/05 07:42:53;;;;;;;35.07;18.17;;;3.20;99.90;;;;;;5033404;28;20576;-67
2022/03/05 07:45:19;;;;;;;26.03;17.33;;;3.20;99.90;;;;;;5025120;28;20195;-67
2022/03/05 07:47:45;;;;;;;35.50;18.90;;;3.20;99.90;;;;;;5013949;28;20539;-66
2022/03/05 07:50:10;;;;;;;32.93;18.00;;;3.20;99.90;;;;;;5030533;28;20242;-66
2022/03/05 07:52:36;;;;;;;30.50;18.77;;;3.40;99.90;;;;;;5032197;28;20199;-67
2022/03/05 07:55:03;;;;;;;30.37;17.43;;;3.60;99.90;;;;;;5017690;28;20184;-67
2022/03/05 07:57:28;;;;;;;34.17;17.53;;;3.80;99.90;;;;;;5013499;28;20803;-67
2022/03/05 07:59:54;;;;;;;28.30;16.87;;;4.00;99.90;;;;;;5021274;28;20207;-67
2022/03/05 08:02:19;;;;;;;30.37;18.40;;;4.10;99.90;;;;;;5029726;28;20204;-66
2022/03/05 08:04:47;;;;;;;29.93;16.87;;;4.20;99.90;;;;;;5029263;28;20601;-66
2022/03/05 08:07:13;;;;;;;30.57;17.87;;;4.40;99.90;;;;;;5014349;28;20599;-66
2022/03/05 08:09:41;;;;;;;29.87;17.63;;;4.40;99.90;;;;;;5023827;28;20230;-66
2022/03/05 08:12:07;;;;;;;31.23;17.63;;;4.50;99.90;;;;;;5033043;28;20179;-66
2022/03/05 08:14:32;;;;;;;26.27;16.17;;;4.50;99.90;;;;;;5024076;28;20598;-66
2022/03/05 08:16:58;;;;;;;24.53;15.77;;;4.60;99.90;;;;;;5017478;28;20207;-66
2022/03/05 08:19:23;;;;;;;30.17;17.63;;;4.80;99.90;;;;;;5031858;28;20175;-66
2022/03/05 08:21:49;;;;;;;28.13;17.00;;;5.00;99.90;;;;;;5028977;28;20657;-66
2022/03/05 08:24:15;;;;;;;28.03;16.97;;;5.20;99.90;;;;;;5012823;28;20182;-67
2022/03/05 08:26:40;;;;;;;27.23;16.43;;;5.30;99.90;;;;;;5015117;28;20206;-67
2022/03/05 08:29:06;;;;;;;25.13;17.03;;;5.50;99.90;;;;;;5031688;28;20586;-67
2022/03/05 08:31:31;;;;;;;23.50;15.43;;;5.70;99.90;;;;;;5031089;28;20199;-67
2022/03/05 08:34:04;;;;;;;26.33;17.03;;;5.90;99.90;;;;;;5010575;28;20195;-67
2022/03/05 08:36:29;;;;;;;29.43;16.57;;;6.20;99.90;;;;;;5030243;28;20237;-67
2022/03/05 08:38:56;;;;;;;30.80;18.67;;;6.30;99.90;;;;;;5032480;28;20195;-66
2022/03/05 08:41:22;;;;;;;33.27;18.93;;;6.40;99.90;;;;;;5013278;28;20215;-67
2022/03/05 08:43:47;;;;;;;24.97;16.60;;;6.60;99.90;;;;;;5012472;28;20796;-67
2022/03/05 08:46:13;;;;;;;29.20;17.10;;;7.00;99.90;;;;;;5025648;28;20271;-67
2022/03/05 08:48:39;;;;;;;30.03;17.40;;;6.90;99.90;;;;;;5032518;28;20171;-66
2022/03/05 08:51:05;;;;;;;29.50;17.10;;;6.70;99.90;;;;;;5018460;28;20353;-67
2022/03/05 08:53:30;;;;;;;27.13;16.77;;;6.70;99.90;;;;;;5010815;28;20187;-66
2022/03/05 08:55:56;;;;;;;22.73;15.43;;;6.80;99.90;;;;;;5024050;28;20656;-66
2022/03/05 08:58:22;;;;;;;26.33;17.07;;;6.80;99.90;;;;;;5030904;28;20708;-66
2022/03/05 09:00:49;;;;;;;32.57;17.57;;;6.90;99.90;;;;;;5021591;28;20561;-66
2022/03/05 09:03:15;;;;;;;25.00;15.70;;;7.10;99.90;;;;;;5012050;28;20196;-66
2022/03/05 09:05:42;;;;;;;24.33;15.63;;;7.20;99.90;;;;;;5020765;28;20453;-66
2022/03/05 09:08:07;;;;;;;31.20;17.07;;;7.20;99.90;;;;;;5031331;28;20203;-67
2022/03/05 09:10:33;;;;;;;24.27;16.50;;;7.20;99.90;;;;;;5022452;28;20196;-67
2022/03/05 09:12:59;;;;;;;30.83;18.30;;;7.10;99.90;;;;;;5013252;28;20183;-67
2022/03/05 09:15:25;;;;;;;28.37;16.93;;;7.30;99.90;;;;;;5030472;28;20179;-66
2022/03/05 09:17:51;;;;;;;28.30;17.40;;;7.50;99.90;;;;;;5029653;28;20209;-66
2022/03/05 09:20:17;;;;;;;28.40;15.90;;;7.80;99.90;;;;;;5019987;28;20204;-66
2022/03/05 09:22:43;;;;;;;29.80;17.70;;;8.10;99.90;;;;;;5030116;28;20253;-66
2022/03/05 09:25:09;;;;;;;24.73;15.70;;;8.20;99.90;;;;;;4990172;28;20682;-67
2022/03/05 09:27:35;;;;;;;26.73;15.70;;;8.50;99.90;;;;;;5028873;28;20266;-66
2022/03/05 09:30:00;;;;;;;26.23;15.77;;;8.70;99.90;;;;;;5030275;28;20287;-67
2022/03/05 09:32:26;;;;;;;26.07;15.90;;;8.90;99.90;;;;;;5013108;28;20559;-66
2022/03/05 09:34:52;;;;;;;27.67;17.53;;;8.90;99.90;;;;;;5010322;28;20184;-66
2022/03/05 09:37:18;;;;;;;22.60;15.50;;;9.10;99.90;;;;;;5024986;28;20657;-66
2022/03/05 09:39:44;;;;;;;29.03;17.13;;;9.20;99.90;;;;;;5031263;28;20215;-66
2022/03/05 09:42:10;;;;;;;23.17;15.80;;;9.40;99.90;;;;;;5017548;28;20238;-67
2022/03/05 09:44:38;;;;;;;32.23;16.33;;;9.50;99.90;;;;;;5011832;28;20176;-66
2022/03/05 09:47:05;;;;;;;24.53;15.10;;;9.60;99.90;;;;;;5021939;28;20191;-67
2022/03/05 09:49:35;;;;;;;27.93;16.43;;;9.40;99.90;;;;;;5031244;28;20182;-67
2022/03/05 09:52:00;;;;;;;28.43;16.57;;;9.20;99.90;;;;;;5019203;28;20625;-66
2022/03/05 09:54:28;;;;;;;29.53;16.57;;;9.20;99.90;;;;;;5011749;28;20188;-66
2022/03/05 09:56:54;;;;;;;24.97;15.97;;;9.20;99.90;;;;;;5020901;28;20199;-66
2022/03/05 09:59:21;;;;;;;28.63;15.70;;;9.40;99.90;;;;;;5030237;28;20178;-66
2022/03/05 10:01:47;;;;;;;24.67;16.10;;;9.70;99.90;;;;;;5021962;28;20249;-66
2022/03/05 10:04:25;;;;;;;22.23;15.13;;;9.90;99.90;;;;;;5014173;28;20656;-66
2022/03/05 10:07:10;;;;;;;23.37;15.20;;;9.90;99.90;;;;;;5029813;28;20171;-66
2022/03/05 10:09:36;;;;;;;23.63;15.60;;;9.80;99.90;;;;;;5022975;28;20199;-66
2022/03/05 10:12:26;;;;;;;23.33;16.17;;;9.80;99.90;;;;;;5011178;28;20230;-66
2022/03/05 10:15:17;;;;;;;20.07;14.10;;;9.70;99.90;;;;;;5019757;28;20668;-66
2022/03/05 10:17:58;;;;;;;24.17;15.53;;;9.90;99.90;;;;;;5021431;28;20208;-66
2022/03/05 10:20:29;;;;;;;22.60;15.00;;;10.10;99.90;;;;;;5010225;28;20235;-66
2022/03/05 10:23:00;;;;;;;24.97;16.83;;;10.20;99.60;;;;;;5022164;28;20179;-66
2022/03/05 10:25:58;;;;;;;23.17;16.00;;;10.30;99.90;;;;;;5019611;28;20598;-66
2022/03/05 10:28:28;;;;;;;27.07;16.97;;;10.60;99.70;;;;;;5011663;28;20263;-66
2022/03/05 10:30:55;;;;;;;23.97;15.53;;;11.20;99.50;;;;;;5011033;28;20200;-66
2022/03/05 10:33:39;;;;;;;24.87;16.77;;;11.50;96.60;;;;;;5009714;28;20211;-66
2022/03/05 10:36:31;;;;;;;21.67;15.17;;;11.50;96.60;;;;;;5024947;28;20536;-66
2022/03/05 10:39:04;;;;;;;25.07;15.23;;;11.40;95.80;;;;;;5029298;28;20332;-66
2022/03/05 10:41:41;;;;;;;21.93;15.73;;;11.40;96.90;;;;;;5017073;28;20212;-66
2022/03/05 10:44:17;;;;;;;20.00;14.80;;;11.50;96.80;;;;;;5014648;28;20183;-66
2022/03/05 10:46:48;;;;;;;22.87;15.30;;;11.70;96.80;;;;;;5033594;28;20183;-66
2022/03/05 10:49:28;;;;;;;19.90;14.83;;;12.00;95.80;;;;;;5033054;28;20175;-66
2022/03/05 10:52:00;;;;;;;19.60;14.30;;;12.30;95.20;;;;;;5015340;28;20176;-66
2022/03/05 10:54:38;;;;;;;23.27;14.77;;;12.40;93.70;;;;;;5015052;28;20520;-66
2022/03/05 10:57:14;;;;;;;22.30;14.50;;;12.50;93.30;;;;;;4995666;28;20196;-66
2022/03/05 10:59:42;;;;;;;22.20;14.50;;;12.60;94.50;;;;;;5024562;28;20199;-66
2022/03/05 11:02:10;;;;;;;25.43;17.33;;;12.80;93.00;;;;;;5032874;28;20172;-66
2022/03/05 11:04:37;;;;;;;21.90;15.53;;;12.90;93.70;;;;;;5020204;28;20176;-66
2022/03/05 11:07:04;;;;;;;24.80;15.90;;;13.10;92.90;;;;;;5014565;28;20663;-66
2022/03/05 11:09:31;;;;;;;22.90;15.80;;;13.30;92.30;;;;;;5017898;28;20188;-66
2022/03/05 11:11:59;;;;;;;22.33;15.73;;;13.40;91.60;;;;;;5025963;28;20196;-67
2022/03/05 11:14:25;;;;;;;22.20;13.87;;;13.60;90.50;;;;;;5043629;28;20180;-67
2022/03/05 11:16:51;;;;;;;21.80;15.27;;;13.60;90.30;;;;;;5050394;28;20240;-67
2022/03/05 11:19:17;;;;;;;23.40;15.43;;;13.50;88.70;;;;;;5023118;28;20279;-66
2022/03/05 11:21:43;;;;;;;19.03;15.10;;;13.30;87.30;;;;;;5014525;28;20237;-67
2022/03/05 11:24:13;;;;;;;21.00;15.03;;;13.00;86.30;;;;;;5022046;28;20241;-66
2022/03/05 11:26:40;;;;;;;27.47;16.87;;;13.00;88.70;;;;;;5028506;28;20182;-66
2022/03/05 11:29:06;;;;;;;28.13;17.23;;;12.90;88.10;;;;;;5014389;28;20187;-66
2022/03/05 11:31:34;;;;;;;22.67;15.47;;;12.80;85.10;;;;;;5017526;28;20241;-66
2022/03/05 11:34:12;;;;;;;18.13;14.33;;;12.90;89.00;;;;;;5033420;28;20211;-66
2022/03/05 11:36:46;;;;;;;19.83;14.77;;;13.10;86.60;;;;;;5028346;28;20176;-66
2022/03/05 11:39:16;;;;;;;21.20;15.83;;;13.30;85.60;;;;;;5013010;28;20219;-66
2022/03/05 11:41:47;;;;;;;21.30;13.33;;;13.70;87.20;;;;;;5017650;28;20337;-68
2022/03/05 11:44:15;;;;;;;17.87;14.27;;;13.90;84.40;;;;;;5032183;28;20175;-66
2022/03/05 11:46:41;;;;;;;19.93;13.77;;;13.70;78.40;;;;;;5028844;28;20247;-66
2022/03/05 11:49:08;;;;;;;19.07;14.13;;;13.50;81.20;;;;;;5013778;28;20181;-66
2022/03/05 11:51:50;;;;;;;21.70;14.87;;;13.70;83.40;;;;;;5015120;28;20219;-66
2022/03/05 11:54:17;;;;;;;19.50;13.87;;;13.80;80.40;;;;;;5032682;28;20176;-66
2022/03/05 11:57:04;;;;;;;18.70;14.20;;;14.10;83.60;;;;;;5012635;28;20180;-66
2022/03/05 11:59:38;;;;;;;21.03;14.40;;;14.20;79.60;;;;;;5014782;28;20242;-67
2022/03/05 12:02:04;;;;;;;16.83;13.90;;;14.20;80.40;;;;;;5033048;28;20221;-67
2022/03/05 12:04:30;;;;;;;17.93;14.13;;;14.20;79.40;;;;;;5026716;28;20187;-67
2022/03/05 12:07:02;;;;;;;18.97;14.13;;;14.60;81.80;;;;;;5032834;28;20546;-67
2022/03/05 12:09:38;;;;;;;19.23;14.50;;;14.60;75.70;;;;;;5026338;28;20183;-66
2022/03/05 12:12:15;;;;;;;24.40;15.63;;;14.40;77.40;;;;;;5012729;28;20179;-66
2022/03/05 12:15:07;;;;;;;16.53;12.63;;;14.30;79.50;;;;;;5020422;28;20183;-66
2022/03/05 12:17:39;;;;;;;15.97;12.73;;;14.40;74.20;;;;;;5022204;28;20695;-67
2022/03/05 12:20:11;;;;;;;20.03;14.83;;;14.30;73.90;;;;;;5012672;28;20203;-67
2022/03/05 12:22:46;;;;;;;17.47;13.67;;;14.40;73.40;;;;;;5020687;28;20203;-67
2022/03/05 12:25:12;;;;;;;17.57;12.23;;;14.50;73.90;;;;;;5032574;28;20175;-67
2022/03/05 12:27:46;;;;;;;15.77;12.43;;;14.60;72.00;;;;;;5024785;28;20189;-67
2022/03/05 12:30:13;;;;;;;15.63;13.27;;;14.40;70.40;;;;;;5012577;28;20569;-67